Spencer, SD

2:20 PM CDT on October 30, 2014 (GMT -0500)
Rural Canova, SD | Change Station
CLOSE
Current Station
Personal Weather Station
Location: Canova, SD
Elevation: 1542 ft
Nearby Weather Stations

Elev 1542 ft 43.81 °N, 97.48 °W | Updated 6 seconds ago

Overcast
Overcast
45.4 °F
Feels Like 40 °F
N
10.0
Wind Variable Wind from North
Gusts 16.1 mph

Today
High -- | Low -- °F
--% Chance of Precip.
Yesterday
High -- | Low -- °F
Precip. -- in
8:03 AM 6:23 PM
Waxing Crescent, 46% visible
Pressure 30.26 in
Visibility 10.0 miles
Clouds Mostly Cloudy 1600 ft
Overcast 2400 ft
Windchill 40 °F
Dew Point 41 °F
Humidity 84%
Rainfall 0.00 in
Snow Depth Not available.
UV 1 out of 12
Pollen 1.20 out of 12
Air Quality Not available.
Flu Activity Not available.
METAR KMHE 301853Z AUTO 34017KT 10SM BKN016 OVC024 07/03 A3024 RMK AO2 PK WND 35027/1806 SLP247 T00720033

More Conditions Fewer Conditions

Pressure 30.26 in
Visibility 10.0 miles
Clouds Mostly Cloudy 1600 ft
Overcast 2400 ft
Windchill 40 °F
Dew Point 41 °F
Humidity 84%
Rainfall 0.00 in
Snow Depth Not available.
UV 1 out of 12
Pollen 1.20 out of 12
Air Quality Not available.
Flu Activity Not available.
METAR KMHE 301853Z AUTO 34017KT 10SM BKN016 OVC024 07/03 A3024 RMK AO2 PK WND 35027/1806 SLP247 T00720033

More Conditions Fewer Conditions

10-Day Weather Forecast

Almanac

Astronomy

Oct. 30, 2014 Rise Set
Actual Time
Civil Twilight
Nautical Twilight
Astronomical Twilight
Moon
Length of Visible Light
Length of Day
Tomorrow will be .
, % of the Moon is Illuminated

Today's Extremes

State Highs State Lows

Community

WunderPhotos

Upload Photos

1,766,451 photos uploaded!

WunderBlogs® & News

Nearby

Air Quality

  Air Quality AQ Index Pollutant
Not available.

Snow Depth

Station Depth Elevation

Earthquake Activity

City Distance Mag. Time & Date
Minimum magnitude displayed is 2.5.

Coastal Water Temperatures

Place Temperature

Nearby Weather Stations